createdAt,value
2023-02-24T00:00:55.252Z,60.39
2023-02-24T00:03:26.077Z,60.42
2023-02-24T00:05:57.012Z,60.21
2023-02-24T00:08:27.878Z,60.28
2023-02-24T00:10:58.837Z,60.17
2023-02-24T00:13:30.934Z,60.47
2023-02-24T00:16:02.976Z,60.17
2023-02-24T00:18:34.174Z,60.39
2023-02-24T00:21:10.984Z,60.43
2023-02-24T00:23:41.770Z,60.32
2023-02-24T00:26:12.845Z,60.39
2023-02-24T00:28:44.451Z,60.00
2023-02-24T00:31:16.053Z,60.27
2023-02-24T00:33:47.575Z,60.31
2023-02-24T00:36:24.072Z,60.22
2023-02-24T00:38:56.364Z,60.20
2023-02-24T00:41:29.514Z,60.22
2023-02-24T00:44:06.136Z,60.38
2023-02-24T00:46:37.882Z,60.33
2023-02-24T00:49:10.605Z,60.38
2023-02-24T00:51:42.167Z,60.28
2023-02-24T00:54:15.142Z,60.24
2023-02-24T00:56:46.346Z,60.15
2023-02-24T00:59:18.722Z,60.26
2023-02-24T01:01:50.572Z,60.32
2023-02-24T01:04:21.928Z,60.45
2023-02-24T01:07:00.202Z,60.30
2023-02-24T01:09:32.805Z,60.27
2023-02-24T01:12:17.488Z,60.33
2023-02-24T01:14:48.990Z,60.28
2023-02-24T01:17:20.855Z,60.15
2023-02-24T01:19:52.058Z,60.35
2023-02-24T01:22:23.961Z,60.17
2023-02-24T01:24:54.995Z,60.13
2023-02-24T01:27:25.785Z,60.09
2023-02-24T01:29:56.569Z,60.45
2023-02-24T01:32:32.017Z,60.29
2023-02-24T01:35:02.907Z,60.22
2023-02-24T01:37:34.125Z,60.33
2023-02-24T01:40:11.959Z,60.10
2023-02-24T01:42:47.681Z,60.48
2023-02-24T01:45:26.342Z,60.25
2023-02-24T01:47:57.939Z,60.29
2023-02-24T01:50:28.684Z,60.20
2023-02-24T01:53:00.177Z,60.49
2023-02-24T01:55:32.992Z,60.12
2023-02-24T01:58:06.050Z,60.22
2023-02-24T02:00:45.382Z,60.81
2023-02-24T02:03:18.988Z,60.24
2023-02-24T02:05:49.878Z,60.63
2023-02-24T02:08:21.117Z,60.43
2023-02-24T02:10:58.008Z,60.47
2023-02-24T02:13:29.028Z,60.63
2023-02-24T02:16:04.857Z,60.68
2023-02-24T02:18:41.153Z,60.55
2023-02-24T02:21:19.070Z,60.56
2023-02-24T02:26:58.366Z,60.67
2023-02-24T02:29:48.418Z,60.54
2023-02-24T02:32:33.885Z,60.71
2023-02-24T02:35:06.569Z,60.81
2023-02-24T02:37:40.991Z,60.65
2023-02-24T02:40:19.952Z,60.76
2023-02-24T02:42:54.181Z,60.75
2023-02-24T02:45:26.025Z,60.76
2023-02-24T02:47:59.407Z,60.91
2023-02-24T02:50:31.326Z,60.85
2023-02-24T02:53:04.173Z,60.78
2023-02-24T02:55:36.457Z,60.78
2023-02-24T02:58:09.277Z,60.89
2023-02-24T03:00:42.296Z,60.46
2023-02-24T03:03:13.837Z,60.75
2023-02-24T03:05:47.157Z,60.88
2023-02-24T03:08:19.274Z,60.75
2023-02-24T03:10:51.223Z,60.93
2023-02-24T03:13:22.831Z,61.13
2023-02-24T03:15:53.761Z,60.95
2023-02-24T03:18:29.199Z,60.86
2023-02-24T03:21:01.277Z,60.73
2023-02-24T03:23:33.654Z,61.11
2023-02-24T03:26:07.699Z,60.87
2023-02-24T03:28:39.859Z,60.97
2023-02-24T03:31:11.963Z,61.30
2023-02-24T03:33:44.798Z,61.09
2023-02-24T03:36:17.365Z,61.27
2023-02-24T03:38:50.451Z,60.95
2023-02-24T03:41:21.570Z,60.90
2023-02-24T03:43:52.862Z,61.32
2023-02-24T03:46:23.873Z,60.84
2023-02-24T03:48:57.820Z,61.28
2023-02-24T03:51:29.008Z,61.01
2023-02-24T03:54:03.891Z,61.34
2023-02-24T03:56:40.593Z,61.13
2023-02-24T03:59:15.317Z,61.11
2023-02-24T04:01:49.141Z,60.94
2023-02-24T04:04:21.702Z,61.12
2023-02-24T04:06:56.065Z,61.08
2023-02-24T04:09:29.378Z,61.04
2023-02-24T04:12:01.043Z,61.14
2023-02-24T04:14:34.821Z,61.04
2023-02-24T04:17:09.123Z,61.39
2023-02-24T04:19:40.964Z,61.15
2023-02-24T04:22:12.281Z,60.84
2023-02-24T04:24:44.409Z,61.29
2023-02-24T04:27:15.738Z,61.04
2023-02-24T04:29:47.631Z,61.50
2023-02-24T04:32:19.194Z,61.41
2023-02-24T04:34:50.179Z,61.40
2023-02-24T04:37:23.377Z,61.72
2023-02-24T04:39:55.238Z,61.45
2023-02-24T04:42:26.024Z,61.29
2023-02-24T04:44:58.807Z,61.36
2023-02-24T04:47:29.620Z,61.37
2023-02-24T04:50:00.681Z,61.41
2023-02-24T04:52:31.593Z,61.63
2023-02-24T04:55:10.169Z,61.35
2023-02-24T04:57:41.203Z,61.40
2023-02-24T05:00:22.215Z,61.32
2023-02-24T05:02:56.625Z,61.57
2023-02-24T05:05:28.015Z,61.44
2023-02-24T05:08:03.148Z,61.37
2023-02-24T05:10:38.392Z,61.38
2023-02-24T05:13:09.446Z,61.53
2023-02-24T05:15:41.973Z,61.59
2023-02-24T05:18:15.007Z,61.51
2023-02-24T05:21:15.204Z,61.49
2023-02-24T05:23:46.948Z,61.80
2023-02-24T05:26:18.639Z,62.00
2023-02-24T05:28:52.423Z,61.69
2023-02-24T05:31:26.534Z,61.81
2023-02-24T05:33:58.981Z,61.94
2023-02-24T05:36:31.913Z,61.68
2023-02-24T05:39:07.780Z,62.09
2023-02-24T05:41:39.759Z,62.15
2023-02-24T05:44:12.562Z,61.80
2023-02-24T05:46:44.826Z,61.68
2023-02-24T05:49:17.701Z,61.98
2023-02-24T05:51:54.974Z,62.01
2023-02-24T05:54:29.664Z,61.92
2023-02-24T05:57:01.565Z,62.20
2023-02-24T05:59:33.151Z,62.00
2023-02-24T06:02:07.732Z,62.16
2023-02-24T06:04:46.850Z,62.20
2023-02-24T06:07:20.597Z,62.15
2023-02-24T06:09:54.019Z,62.01
2023-02-24T06:12:25.531Z,62.15
2023-02-24T06:14:58.251Z,62.42
2023-02-24T06:17:29.845Z,62.21
2023-02-24T06:20:00.952Z,62.30
2023-02-24T06:22:33.829Z,62.12
2023-02-24T06:25:05.482Z,62.39
2023-02-24T06:27:39.257Z,62.17
2023-02-24T06:30:12.342Z,62.33
2023-02-24T06:32:44.979Z,62.38
2023-02-24T06:35:16.018Z,62.40
2023-02-24T06:37:46.798Z,62.34
2023-02-24T06:40:18.335Z,62.34
2023-02-24T06:42:49.864Z,62.33
2023-02-24T06:45:20.977Z,62.17
2023-02-24T06:47:51.819Z,62.23
2023-02-24T06:50:23.516Z,62.36
2023-02-24T06:52:55.863Z,62.62
2023-02-24T06:55:26.707Z,62.53
2023-02-24T06:57:58.693Z,62.66
2023-02-24T07:00:38.741Z,62.64
2023-02-24T07:03:17.350Z,62.86
2023-02-24T07:05:54.370Z,62.60
2023-02-24T07:08:27.456Z,62.70
2023-02-24T07:11:00.127Z,62.59
2023-02-24T07:13:31.170Z,62.30
2023-02-24T07:16:07.328Z,62.37
2023-02-24T07:18:40.700Z,62.33
2023-02-24T07:21:12.741Z,62.17
2023-02-24T07:23:44.080Z,62.15
2023-02-24T07:26:15.494Z,62.33
2023-02-24T07:28:47.020Z,62.38
2023-02-24T07:31:19.007Z,62.10
2023-02-24T07:33:51.371Z,62.42
2023-02-24T07:36:23.427Z,62.32
2023-02-24T07:38:55.297Z,62.44
2023-02-24T07:41:26.875Z,62.01
2023-02-24T07:43:59.858Z,62.31
2023-02-24T07:46:31.289Z,62.30
2023-02-24T07:49:03.708Z,62.28
2023-02-24T07:51:34.745Z,62.22
2023-02-24T07:54:08.534Z,62.32
2023-02-24T07:56:46.267Z,62.27
2023-02-24T07:59:19.535Z,62.14
2023-02-24T08:01:56.192Z,62.39
2023-02-24T08:04:28.070Z,62.23
2023-02-24T08:06:59.213Z,62.41
2023-02-24T08:10:08.947Z,62.32
2023-02-24T08:12:42.953Z,62.38
2023-02-24T08:15:24.330Z,62.34
2023-02-24T08:17:59.723Z,62.45
2023-02-24T08:20:36.435Z,62.57
2023-02-24T08:23:08.970Z,62.67
2023-02-24T08:25:44.585Z,62.40
2023-02-24T08:28:15.564Z,62.39
2023-02-24T08:30:46.864Z,62.33
2023-02-24T08:33:20.493Z,62.37
2023-02-24T08:36:01.432Z,62.44
2023-02-24T08:38:42.453Z,62.42
2023-02-24T08:41:29.363Z,62.45
2023-02-24T08:44:03.312Z,62.43
2023-02-24T08:46:38.112Z,62.40
2023-02-24T08:49:11.089Z,62.46
2023-02-24T08:51:44.073Z,62.52
2023-02-24T08:54:17.349Z,62.47
2023-02-24T08:56:56.166Z,62.55
2023-02-24T08:59:38.322Z,62.56
2023-02-24T09:02:27.508Z,62.46
2023-02-24T09:05:00.302Z,62.60
2023-02-24T09:07:35.692Z,62.59
2023-02-24T09:10:11.639Z,62.66
2023-02-24T09:12:42.595Z,62.64
2023-02-24T09:15:15.563Z,62.64
2023-02-24T09:18:01.471Z,62.43
2023-02-24T09:20:51.927Z,62.85
2023-02-24T09:23:30.060Z,62.63
2023-02-24T09:26:11.353Z,62.60
2023-02-24T09:28:54.789Z,62.38
2023-02-24T09:31:40.870Z,62.37
2023-02-24T09:34:18.755Z,62.56
2023-02-24T09:37:03.231Z,62.74
2023-02-24T09:39:56.797Z,62.51
2023-02-24T09:42:35.469Z,62.56
2023-02-24T09:45:11.589Z,62.49
2023-02-24T09:47:57.347Z,62.54
2023-02-24T09:51:03.267Z,62.48
2023-02-24T09:53:42.205Z,62.49
2023-02-24T09:56:16.297Z,62.47
2023-02-24T09:58:49.019Z,62.56
2023-02-24T10:01:33.552Z,62.34
2023-02-24T10:04:21.916Z,62.36
2023-02-24T10:06:55.367Z,62.15
2023-02-24T10:09:27.197Z,62.23
2023-02-24T10:12:04.729Z,62.38
2023-02-24T10:14:43.843Z,62.49
2023-02-24T10:17:24.942Z,62.67
2023-02-24T10:20:01.237Z,62.50
2023-02-24T10:22:50.856Z,62.63
2023-02-24T10:25:24.919Z,62.29
2023-02-24T10:27:59.286Z,62.35
2023-02-24T10:30:41.131Z,62.50
2023-02-24T10:33:19.361Z,62.38
2023-02-24T10:35:50.387Z,62.36
2023-02-24T10:38:21.217Z,62.26
2023-02-24T10:40:56.891Z,62.28
2023-02-24T10:43:31.768Z,62.01
2023-02-24T10:46:07.726Z,61.84
2023-02-24T10:48:41.886Z,62.18
2023-02-24T10:51:20.563Z,61.94
2023-02-24T10:54:10.358Z,61.97
2023-02-24T10:56:55.418Z,61.85
2023-02-24T10:59:58.560Z,62.00
2023-02-24T11:02:33.062Z,61.45
2023-02-24T11:05:27.459Z,61.73
2023-02-24T11:08:15.875Z,61.87
2023-02-24T11:10:58.913Z,61.71
2023-02-24T11:13:47.358Z,61.64
2023-02-24T11:16:36.032Z,61.64
2023-02-24T11:19:08.993Z,61.53
2023-02-24T11:21:39.803Z,61.61
2023-02-24T11:24:11.665Z,61.64
2023-02-24T11:26:42.727Z,61.51
2023-02-24T11:29:19.834Z,61.45
2023-02-24T11:31:54.109Z,61.14
2023-02-24T11:34:28.943Z,61.13
2023-02-24T11:37:02.907Z,61.34
2023-02-24T11:39:39.355Z,61.22
2023-02-24T11:42:12.675Z,61.20
2023-02-24T11:44:45.459Z,61.19
2023-02-24T11:47:17.850Z,61.20
2023-02-24T11:49:49.999Z,60.97
2023-02-24T11:52:22.282Z,61.14
2023-02-24T11:54:54.794Z,61.34
2023-02-24T11:57:29.197Z,61.06
2023-02-24T12:00:04.839Z,60.97
2023-02-24T12:02:38.938Z,61.06
2023-02-24T12:05:13.026Z,61.00
2023-02-24T12:07:45.269Z,60.77
2023-02-24T12:10:18.258Z,60.86
2023-02-24T12:12:50.744Z,60.86
2023-02-24T12:15:24.576Z,60.95
2023-02-24T12:18:01.844Z,61.05
2023-02-24T12:20:35.262Z,61.04
2023-02-24T12:23:10.807Z,61.17
2023-02-24T12:25:45.131Z,61.12
2023-02-24T12:28:18.667Z,61.06
2023-02-24T12:30:57.867Z,61.35
2023-02-24T12:33:44.055Z,60.92
2023-02-24T12:36:16.296Z,60.87
2023-02-24T12:38:50.802Z,61.06
2023-02-24T12:41:25.452Z,61.17
2023-02-24T12:43:58.247Z,61.33
2023-02-24T12:46:30.662Z,61.22
2023-02-24T12:49:12.335Z,61.21
2023-02-24T12:51:45.601Z,61.37
2023-02-24T12:54:17.864Z,61.29
2023-02-24T12:56:50.441Z,61.11
2023-02-24T12:59:22.957Z,61.16
2023-02-24T13:01:55.689Z,61.32
2023-02-24T13:04:34.785Z,61.34
2023-02-24T13:07:13.910Z,61.34
2023-02-24T13:09:47.542Z,61.62
2023-02-24T13:12:20.399Z,61.61
2023-02-24T13:14:51.353Z,61.46
2023-02-24T13:17:23.074Z,61.51
2023-02-24T13:19:54.395Z,61.37
2023-02-24T13:22:27.089Z,61.37
2023-02-24T13:24:59.374Z,61.23
2023-02-24T13:27:30.718Z,61.16
2023-02-24T13:30:02.167Z,61.20
2023-02-24T13:32:34.071Z,61.45
2023-02-24T13:35:05.782Z,61.37
2023-02-24T13:37:38.955Z,61.11
2023-02-24T13:40:23.734Z,61.07
2023-02-24T13:43:02.373Z,60.96
2023-02-24T13:45:33.560Z,60.93
2023-02-24T13:48:17.893Z,60.83
2023-02-24T13:50:55.934Z,60.89
2023-02-24T13:53:30.936Z,60.74
2023-02-24T13:56:15.079Z,60.73
2023-02-24T13:58:50.486Z,60.74
2023-02-24T14:01:22.235Z,60.50
2023-02-24T14:04:04.935Z,60.39
2023-02-24T14:06:37.698Z,60.39
2023-02-24T14:09:08.662Z,60.31
2023-02-24T14:11:39.630Z,60.14
2023-02-24T14:14:13.594Z,60.11
2023-02-24T14:16:44.468Z,60.03
2023-02-24T14:19:17.146Z,60.22
2023-02-24T14:21:55.366Z,60.22
2023-02-24T14:24:26.229Z,60.19
2023-02-24T14:26:57.746Z,60.36
2023-02-24T14:29:32.116Z,60.10
2023-02-24T14:32:03.218Z,60.21
2023-02-24T14:34:34.781Z,60.21
2023-02-24T14:37:05.652Z,59.85
2023-02-24T14:39:36.407Z,59.79
2023-02-24T14:42:12.143Z,59.97
2023-02-24T14:44:44.305Z,60.25
2023-02-24T14:47:15.758Z,60.20
2023-02-24T14:49:54.394Z,60.10
2023-02-24T14:52:28.271Z,60.21
2023-02-24T14:55:00.254Z,60.11
2023-02-24T14:57:32.096Z,60.08
2023-02-24T15:00:10.531Z,60.27
2023-02-24T15:02:42.880Z,60.44
2023-02-24T15:05:13.842Z,60.18
2023-02-24T15:07:45.548Z,60.30
2023-02-24T15:10:21.909Z,60.24
2023-02-24T15:12:53.449Z,60.42
2023-02-24T15:15:25.033Z,60.21
2023-02-24T15:17:57.472Z,60.11
2023-02-24T15:20:30.966Z,60.44
2023-02-24T15:23:02.181Z,60.53
2023-02-24T15:25:42.453Z,60.58
2023-02-24T15:28:25.728Z,60.53
2023-02-24T15:31:00.186Z,60.49
2023-02-24T15:33:32.994Z,60.55
2023-02-24T15:36:06.552Z,60.53
2023-02-24T15:38:38.027Z,60.61
2023-02-24T15:41:09.421Z,60.53
2023-02-24T15:43:46.487Z,60.29
2023-02-24T15:46:21.410Z,60.70
2023-02-24T15:48:53.056Z,60.65
2023-02-24T15:51:25.967Z,60.73
2023-02-24T15:53:56.911Z,60.84
2023-02-24T15:56:27.893Z,60.70
2023-02-24T15:59:02.762Z,60.65
2023-02-24T16:01:34.143Z,60.69
2023-02-24T16:04:09.962Z,60.62
2023-02-24T16:06:42.892Z,60.86
2023-02-24T16:09:17.550Z,60.86
2023-02-24T16:11:50.530Z,61.04
2023-02-24T16:14:21.677Z,60.85
2023-02-24T16:16:53.147Z,60.87
2023-02-24T16:19:24.246Z,60.88
2023-02-24T16:21:55.109Z,60.84
2023-02-24T16:24:26.088Z,60.96
2023-02-24T16:26:57.056Z,61.03
2023-02-24T16:29:28.594Z,61.04
2023-02-24T16:31:59.858Z,60.89
2023-02-24T16:34:30.902Z,60.91
2023-02-24T16:37:01.972Z,61.04
2023-02-24T16:39:32.905Z,60.82
2023-02-24T16:42:08.892Z,61.06
2023-02-24T16:44:39.812Z,61.11
2023-02-24T16:47:15.562Z,61.12
2023-02-24T16:49:48.044Z,61.10
2023-02-24T16:52:20.838Z,61.21
2023-02-24T16:54:52.939Z,61.08
2023-02-24T16:57:25.842Z,61.05
2023-02-24T17:00:04.786Z,61.19
2023-02-24T17:02:37.566Z,61.28
2023-02-24T17:05:11.378Z,61.19
2023-02-24T17:07:42.564Z,61.16
2023-02-24T17:10:14.070Z,61.29
2023-02-24T17:12:50.931Z,61.28
2023-02-24T17:15:41.632Z,61.33
2023-02-24T17:18:29.060Z,61.24
2023-02-24T17:21:28.259Z,61.09
2023-02-24T17:24:07.504Z,61.21
2023-02-24T17:27:12.434Z,61.37
2023-02-24T17:29:48.754Z,61.13
2023-02-24T17:32:30.386Z,61.07
2023-02-24T17:35:25.411Z,61.23
2023-02-24T17:38:10.395Z,61.14
2023-02-24T17:40:53.146Z,61.08
2023-02-24T17:43:27.305Z,61.10
2023-02-24T17:45:58.539Z,61.04
2023-02-24T17:48:32.373Z,61.16
2023-02-24T17:51:43.035Z,61.25
2023-02-24T17:54:35.168Z,61.17
2023-02-24T17:57:06.254Z,61.22
2023-02-24T17:59:37.533Z,61.33
2023-02-24T18:02:08.643Z,61.22
2023-02-24T18:04:44.000Z,61.35
2023-02-24T18:07:14.955Z,61.28
2023-02-24T18:09:45.878Z,61.27
2023-02-24T18:12:18.724Z,61.31
2023-02-24T18:14:59.120Z,61.28
2023-02-24T18:17:37.007Z,61.35
2023-02-24T18:20:08.986Z,61.41
2023-02-24T18:22:39.916Z,61.50
2023-02-24T18:25:11.265Z,61.47
2023-02-24T18:27:42.200Z,61.40
2023-02-24T18:30:17.854Z,61.53
2023-02-24T18:32:50.172Z,61.52
2023-02-24T18:35:22.261Z,61.54
2023-02-24T18:37:56.784Z,61.58
2023-02-24T18:40:29.595Z,61.65
2023-02-24T18:43:00.448Z,61.70
2023-02-24T18:45:31.960Z,61.80
2023-02-24T18:48:05.168Z,61.65
2023-02-24T18:50:35.987Z,61.76
2023-02-24T18:53:06.726Z,61.70
2023-02-24T18:55:37.554Z,61.90
2023-02-24T18:58:08.344Z,61.97
2023-02-24T19:00:39.243Z,61.88
2023-02-24T19:03:10.182Z,62.06
2023-02-24T19:05:41.046Z,61.95
2023-02-24T19:08:12.068Z,62.03
2023-02-24T19:10:43.825Z,62.08
2023-02-24T19:13:14.616Z,62.12
2023-02-24T19:15:45.599Z,62.09
2023-02-24T19:18:17.222Z,62.25
2023-02-24T19:20:47.969Z,62.21
2023-02-24T19:23:18.760Z,62.30
2023-02-24T19:25:49.633Z,62.37
2023-02-24T19:28:20.315Z,62.27
2023-02-24T19:30:51.190Z,62.34
2023-02-24T19:33:22.029Z,62.34
2023-02-24T19:35:53.487Z,62.22
2023-02-24T19:38:24.442Z,62.49
2023-02-24T19:40:58.635Z,62.45
2023-02-24T19:43:29.501Z,62.35
2023-02-24T19:46:01.771Z,62.47
2023-02-24T19:48:32.786Z,62.53
2023-02-24T19:51:07.102Z,62.50
2023-02-24T19:53:37.820Z,62.56
2023-02-24T19:56:08.773Z,62.51
2023-02-24T19:58:39.544Z,62.67
2023-02-24T20:01:10.905Z,62.75
2023-02-24T20:03:43.008Z,62.82
2023-02-24T20:06:19.104Z,62.93
2023-02-24T20:08:50.082Z,62.84
2023-02-24T20:11:21.259Z,62.82
2023-02-24T20:13:52.316Z,62.82
2023-02-24T20:16:25.307Z,62.91
2023-02-24T20:18:56.716Z,62.86
2023-02-24T20:21:27.535Z,62.77
2023-02-24T20:23:59.603Z,62.80
2023-02-24T20:26:30.714Z,62.75
2023-02-24T20:29:01.639Z,62.92
2023-02-24T20:31:32.516Z,62.81
2023-02-24T20:34:03.251Z,63.00
2023-02-24T20:36:33.996Z,62.77
2023-02-24T20:39:06.688Z,62.97
2023-02-24T20:41:37.601Z,62.94
2023-02-24T20:44:08.672Z,62.85
2023-02-24T20:46:39.646Z,62.89
2023-02-24T20:49:10.828Z,62.91
2023-02-24T20:51:41.867Z,62.91
2023-02-24T20:54:13.398Z,63.11
2023-02-24T20:56:44.946Z,63.04
2023-02-24T20:59:17.218Z,62.97
2023-02-24T21:01:48.792Z,63.00
2023-02-24T21:04:20.631Z,62.94
2023-02-24T21:06:52.174Z,63.13
2023-02-24T21:09:22.936Z,63.19
2023-02-24T21:11:53.788Z,63.11
2023-02-24T21:14:24.581Z,63.12
2023-02-24T21:16:55.384Z,63.05
2023-02-24T21:19:26.112Z,63.28
2023-02-24T21:21:56.918Z,63.04
2023-02-24T21:24:27.797Z,63.12
2023-02-24T21:26:58.739Z,63.20
2023-02-24T21:29:29.551Z,63.17
2023-02-24T21:32:00.609Z,63.01
2023-02-24T21:34:32.162Z,63.23
2023-02-24T21:37:06.185Z,63.24
2023-02-24T21:39:37.763Z,63.26
2023-02-24T21:42:09.021Z,63.35
2023-02-24T21:44:43.552Z,63.22
2023-02-24T21:47:16.074Z,63.19
2023-02-24T21:49:47.621Z,63.25
2023-02-24T21:52:20.021Z,63.02
2023-02-24T21:54:53.107Z,63.27
2023-02-24T21:57:24.580Z,63.24
2023-02-24T21:59:57.033Z,63.34
2023-02-24T22:02:28.438Z,63.26
2023-02-24T22:04:59.966Z,63.18
2023-02-24T22:07:31.296Z,63.16
2023-02-24T22:10:02.586Z,63.22
2023-02-24T22:12:34.064Z,63.26
2023-02-24T22:15:05.901Z,63.45
2023-02-24T22:17:37.833Z,63.31
2023-02-24T22:20:10.798Z,63.07
2023-02-24T22:22:42.494Z,63.19
2023-02-24T22:25:13.969Z,63.19
2023-02-24T22:27:45.600Z,63.27
2023-02-24T22:30:17.229Z,63.29
2023-02-24T22:32:48.445Z,63.21
2023-02-24T22:35:19.777Z,63.13
2023-02-24T22:37:51.194Z,63.42
2023-02-24T22:40:22.767Z,63.29
2023-02-24T22:42:54.165Z,63.38
2023-02-24T22:45:25.403Z,63.09
2023-02-24T22:47:56.641Z,63.00
2023-02-24T22:50:28.248Z,63.21
2023-02-24T22:53:02.157Z,63.13
2023-02-24T22:55:33.609Z,63.15
2023-02-24T22:58:04.808Z,63.44
2023-02-24T23:00:36.183Z,63.39
2023-02-24T23:03:07.681Z,63.34
2023-02-24T23:05:39.231Z,63.33
2023-02-24T23:08:10.866Z,63.44
2023-02-24T23:10:42.294Z,63.45
2023-02-24T23:13:13.711Z,63.46
2023-02-24T23:15:45.263Z,63.77
2023-02-24T23:18:16.858Z,63.56
2023-02-24T23:20:49.140Z,63.72
2023-02-24T23:23:20.679Z,63.55
2023-02-24T23:25:52.693Z,63.78
2023-02-24T23:28:25.276Z,63.72
2023-02-24T23:30:56.919Z,63.54
2023-02-24T23:33:28.442Z,63.58
2023-02-24T23:36:00.526Z,63.59
2023-02-24T23:38:32.923Z,63.68
2023-02-24T23:41:08.347Z,63.74
2023-02-24T23:43:40.115Z,63.48
2023-02-24T23:46:12.388Z,63.54
2023-02-24T23:48:43.757Z,63.48
2023-02-24T23:51:16.426Z,63.57
2023-02-24T23:53:48.036Z,63.53
2023-02-24T23:56:21.041Z,63.55
2023-02-24T23:58:53.099Z,63.64
